createdAt,value
2022-11-23T00:01:15.912Z,6.10
2022-11-23T00:04:19.041Z,5.57
2022-11-23T00:07:21.677Z,5.25
2022-11-23T00:10:24.700Z,5.43
2022-11-23T00:13:27.722Z,5.67
2022-11-23T00:19:47.660Z,6.22
2022-11-23T00:22:50.526Z,6.57
2022-11-23T00:25:53.146Z,6.93
2022-11-23T00:28:57.375Z,6.23
2022-11-23T00:32:01.926Z,6.22
2022-11-23T00:35:05.350Z,5.10
2022-11-23T00:38:08.956Z,6.00
2022-11-23T00:41:14.755Z,6.30
2022-11-23T00:44:17.698Z,5.80
2022-11-23T00:47:20.518Z,7.28
2022-11-23T00:50:23.169Z,7.40
2022-11-23T00:53:26.562Z,6.32
2022-11-23T00:56:30.561Z,6.13
2022-11-23T00:59:33.795Z,6.87
2022-11-23T01:02:37.967Z,6.25
2022-11-23T01:05:41.419Z,6.45
2022-11-23T01:08:50.810Z,6.18
2022-11-23T01:11:54.589Z,6.27
2022-11-23T01:14:59.088Z,6.63
2022-11-23T01:18:01.933Z,6.30
2022-11-23T01:21:06.950Z,7.15
2022-11-23T01:24:14.529Z,5.75
2022-11-23T01:27:17.106Z,6.83
2022-11-23T01:30:20.079Z,7.47
2022-11-23T01:33:22.735Z,7.45
2022-11-23T01:36:28.134Z,7.43
2022-11-23T01:39:31.000Z,6.78
2022-11-23T01:42:55.155Z,7.10
2022-11-23T01:45:59.766Z,6.40
2022-11-23T01:49:06.861Z,6.80
2022-11-23T01:52:17.620Z,5.47
2022-11-23T01:55:21.841Z,6.28
2022-11-23T01:58:27.003Z,7.03
2022-11-23T02:01:30.357Z,6.40
2022-11-23T02:04:37.671Z,6.50
2022-11-23T02:07:42.895Z,5.72
2022-11-23T02:10:45.802Z,5.57
2022-11-23T02:13:51.545Z,4.53
2022-11-23T02:16:54.417Z,4.73
2022-11-23T02:20:13.114Z,6.43
2022-11-23T02:23:38.838Z,5.87
2022-11-23T02:26:42.104Z,6.68
2022-11-23T02:29:45.061Z,5.50
2022-11-23T02:32:48.194Z,7.23
2022-11-23T02:35:59.036Z,6.95
2022-11-23T02:39:06.971Z,6.15
2022-11-23T02:42:09.504Z,6.00
2022-11-23T02:45:29.020Z,5.53
2022-11-23T02:48:31.523Z,6.40
2022-11-23T02:51:34.571Z,5.37
2022-11-23T02:54:38.008Z,5.97
2022-11-23T02:57:40.926Z,6.28
2022-11-23T03:00:45.643Z,5.37
2022-11-23T03:03:48.676Z,5.97
2022-11-23T03:06:51.482Z,5.47
2022-11-23T03:09:54.406Z,3.95
2022-11-23T03:12:57.233Z,5.78
2022-11-23T03:16:00.524Z,6.30
2022-11-23T03:19:04.706Z,5.17
2022-11-23T03:22:08.740Z,5.65
2022-11-23T03:25:13.686Z,5.25
2022-11-23T03:28:20.212Z,5.60
2022-11-23T03:31:22.926Z,5.50
2022-11-23T03:34:25.954Z,5.63
2022-11-23T03:37:28.598Z,5.65
2022-11-23T03:40:32.262Z,5.15
2022-11-23T03:43:36.185Z,4.65
2022-11-23T03:46:39.105Z,4.40
2022-11-23T03:49:41.834Z,5.10
2022-11-23T03:52:45.059Z,5.68
2022-11-23T03:55:47.897Z,5.60
2022-11-23T03:58:51.121Z,5.07
2022-11-23T04:01:54.304Z,4.33
2022-11-23T04:04:59.704Z,4.70
2022-11-23T04:08:04.507Z,5.32
2022-11-23T04:11:07.645Z,4.62
2022-11-23T04:14:11.772Z,4.30
2022-11-23T04:17:14.785Z,4.80
2022-11-23T04:20:17.371Z,3.87
2022-11-23T04:23:20.354Z,4.15
2022-11-23T04:26:23.528Z,3.95
2022-11-23T04:29:26.596Z,2.97
2022-11-23T04:32:29.527Z,4.00
2022-11-23T04:35:32.545Z,4.70
2022-11-23T04:38:35.150Z,4.57
2022-11-23T04:41:39.072Z,4.25
2022-11-23T04:44:41.792Z,4.95
2022-11-23T04:47:44.706Z,4.30
2022-11-23T04:50:49.122Z,5.97
2022-11-23T04:53:54.706Z,7.30
2022-11-23T04:57:00.149Z,57.30
2022-11-23T05:00:08.982Z,6.45
2022-11-23T05:03:12.015Z,4.23
2022-11-23T05:06:15.028Z,31.83
2022-11-23T05:09:17.782Z,14.18
2022-11-23T05:12:21.779Z,9.90
2022-11-23T05:15:24.754Z,35.78
2022-11-23T05:18:28.749Z,5.33
2022-11-23T05:21:31.405Z,7.00
2022-11-23T05:24:34.930Z,5.40
2022-11-23T05:27:38.738Z,5.03
2022-11-23T05:30:42.368Z,3.95
2022-11-23T05:33:45.520Z,4.40
2022-11-23T05:36:50.568Z,3.97
2022-11-23T05:39:53.829Z,4.43
2022-11-23T05:42:57.799Z,5.90
2022-11-23T05:46:01.110Z,4.80
2022-11-23T05:49:05.015Z,4.67
2022-11-23T05:52:08.363Z,3.93
2022-11-23T05:55:12.285Z,4.15
2022-11-23T05:58:15.106Z,4.30
2022-11-23T06:01:18.261Z,3.25
2022-11-23T06:04:21.576Z,3.90
2022-11-23T06:07:24.463Z,4.37
2022-11-23T06:10:28.526Z,3.78
2022-11-23T06:13:31.422Z,4.07
2022-11-23T06:16:35.145Z,4.55
2022-11-23T06:19:38.633Z,6.43
2022-11-23T06:22:41.808Z,5.30
2022-11-23T06:25:44.472Z,4.28
2022-11-23T06:28:48.149Z,3.90
2022-11-23T06:31:55.061Z,3.65
2022-11-23T06:35:01.027Z,4.10
2022-11-23T06:38:07.031Z,4.30
2022-11-23T06:41:10.117Z,4.18
2022-11-23T06:44:13.942Z,5.07
2022-11-23T06:47:21.953Z,4.60
2022-11-23T06:50:30.964Z,5.20
2022-11-23T06:53:34.643Z,5.93
2022-11-23T06:56:37.647Z,4.70
2022-11-23T06:59:44.534Z,4.22
2022-11-23T07:02:55.735Z,5.05
2022-11-23T07:06:01.102Z,3.83
2022-11-23T07:09:05.809Z,3.87
2022-11-23T07:12:12.256Z,3.25
2022-11-23T07:15:15.238Z,3.12
2022-11-23T07:18:18.609Z,3.28
2022-11-23T07:21:21.872Z,3.80
2022-11-23T07:24:25.601Z,4.00
2022-11-23T07:27:28.470Z,5.40
2022-11-23T07:30:32.772Z,4.03
2022-11-23T07:33:35.609Z,3.25
2022-11-23T07:36:39.035Z,3.07
2022-11-23T07:39:56.781Z,3.40
2022-11-23T07:43:02.052Z,2.97
2022-11-23T07:46:04.719Z,3.28
2022-11-23T07:49:07.720Z,2.33
2022-11-23T07:52:10.721Z,3.07
2022-11-23T07:55:13.640Z,3.57
2022-11-23T07:58:16.410Z,3.28
2022-11-23T08:01:20.127Z,3.20
2022-11-23T08:04:23.393Z,3.58
2022-11-23T08:07:25.982Z,3.10
2022-11-23T08:10:30.572Z,2.90
2022-11-23T08:13:34.866Z,3.60
2022-11-23T08:16:38.038Z,3.10
2022-11-23T08:19:40.572Z,3.22
2022-11-23T08:22:43.477Z,2.80
2022-11-23T08:25:46.126Z,2.90
2022-11-23T08:28:49.176Z,3.42
2022-11-23T08:31:51.940Z,3.30
2022-11-23T08:34:54.842Z,3.15
2022-11-23T08:37:57.429Z,3.10
2022-11-23T08:41:01.691Z,3.23
2022-11-23T08:44:05.142Z,3.50
2022-11-23T08:47:08.032Z,3.45
2022-11-23T08:50:10.788Z,2.58
2022-11-23T08:53:13.739Z,2.73
2022-11-23T08:56:16.323Z,2.80
2022-11-23T08:59:19.484Z,3.08
2022-11-23T09:02:22.203Z,2.90
2022-11-23T09:05:25.696Z,2.80
2022-11-23T09:08:29.239Z,2.77
2022-11-23T09:11:32.474Z,2.97
2022-11-23T09:14:35.401Z,2.83
2022-11-23T09:17:38.551Z,2.70
2022-11-23T09:20:41.188Z,2.95
2022-11-23T09:23:44.056Z,2.53
2022-11-23T09:26:49.232Z,2.43
2022-11-23T09:29:52.151Z,2.83
2022-11-23T09:32:58.251Z,2.62
2022-11-23T09:36:04.593Z,5.68
2022-11-23T09:39:07.434Z,4.00
2022-11-23T09:42:32.055Z,10.77
2022-11-23T09:45:50.135Z,5.62
2022-11-23T09:49:19.268Z,5.43
2022-11-23T09:52:24.302Z,10.10
2022-11-23T09:55:43.988Z,5.30
2022-11-23T09:58:46.818Z,4.57
2022-11-23T10:01:50.267Z,9.82
2022-11-23T10:04:53.992Z,4.37
2022-11-23T10:08:25.432Z,3.83
2022-11-23T10:13:10.297Z,2.80
2022-11-23T10:16:49.797Z,2.53
2022-11-23T10:20:13.953Z,3.05
2022-11-23T10:23:46.224Z,4.00
2022-11-23T10:26:50.905Z,3.60
2022-11-23T10:29:56.617Z,3.73
2022-11-23T10:33:04.485Z,2.50
2022-11-23T10:36:11.335Z,2.80
2022-11-23T10:39:19.513Z,3.00
2022-11-23T10:42:42.572Z,3.53
2022-11-23T10:45:46.426Z,3.40
2022-11-23T10:48:49.529Z,3.22
2022-11-23T10:51:56.568Z,2.58
2022-11-23T10:55:04.210Z,2.55
2022-11-23T10:58:28.551Z,3.33
2022-11-23T11:01:31.561Z,2.63
2022-11-23T11:04:34.375Z,4.90
2022-11-23T11:07:38.471Z,2.90
2022-11-23T11:10:50.188Z,2.62
2022-11-23T11:14:03.652Z,2.70
2022-11-23T11:17:26.469Z,2.87
2022-11-23T11:20:33.263Z,2.90
2022-11-23T11:23:40.796Z,2.30
2022-11-23T11:26:58.812Z,2.95
2022-11-23T11:30:18.985Z,4.03
2022-11-23T11:33:43.665Z,2.70
2022-11-23T11:37:00.992Z,3.15
2022-11-23T11:40:29.015Z,3.12
2022-11-23T11:44:06.216Z,2.72
2022-11-23T11:47:34.354Z,3.10
2022-11-23T11:50:43.809Z,2.00
2022-11-23T11:54:01.865Z,2.10
2022-11-23T11:57:10.527Z,2.70
2022-11-23T12:00:18.215Z,2.67
2022-11-23T12:03:39.479Z,2.62
2022-11-23T12:07:00.943Z,4.77
2022-11-23T12:10:12.129Z,4.60
2022-11-23T12:13:23.958Z,4.10
2022-11-23T12:17:31.470Z,3.60
2022-11-23T12:20:38.207Z,4.90
2022-11-23T12:24:05.457Z,4.13
2022-11-23T12:27:23.084Z,4.18
2022-11-23T12:30:44.368Z,3.80
2022-11-23T12:34:11.349Z,4.40
2022-11-23T12:37:32.193Z,4.00
2022-11-23T12:41:08.349Z,4.03
2022-11-23T12:44:37.314Z,5.60
2022-11-23T12:48:15.732Z,5.80
2022-11-23T12:51:23.577Z,4.18
2022-11-23T12:54:35.208Z,5.85
2022-11-23T12:57:52.698Z,5.73
2022-11-23T13:01:06.411Z,6.15
2022-11-23T13:04:51.304Z,4.80
2022-11-23T13:08:22.220Z,5.03
2022-11-23T13:11:31.282Z,6.60
2022-11-23T13:15:03.042Z,4.80
2022-11-23T13:18:36.435Z,4.85
2022-11-23T13:21:42.313Z,6.28
2022-11-23T13:25:21.064Z,4.37
2022-11-23T13:28:31.606Z,3.83
2022-11-23T13:31:36.251Z,3.07
2022-11-23T13:34:45.777Z,3.12
2022-11-23T13:37:57.532Z,3.60
2022-11-23T13:41:01.052Z,3.85
2022-11-23T13:44:19.615Z,3.75
2022-11-23T13:47:22.255Z,4.30
2022-11-23T13:50:26.431Z,5.95
2022-11-23T13:53:39.902Z,5.07
2022-11-23T13:56:44.496Z,5.65
2022-11-23T13:59:47.210Z,4.68
2022-11-23T14:02:50.364Z,4.47
2022-11-23T14:06:01.927Z,5.10
2022-11-23T14:09:13.170Z,4.72
2022-11-23T14:12:28.030Z,3.78
2022-11-23T14:15:34.103Z,3.97
2022-11-23T14:18:54.528Z,5.10
2022-11-23T14:22:04.239Z,4.57
2022-11-23T14:25:32.286Z,5.05
2022-11-23T14:28:55.272Z,4.75
2022-11-23T14:32:16.710Z,3.53
2022-11-23T14:35:33.463Z,2.93
2022-11-23T14:38:38.555Z,4.03
2022-11-23T14:41:42.646Z,3.40
2022-11-23T14:44:46.005Z,3.62
2022-11-23T14:47:49.031Z,3.25
2022-11-23T14:51:23.675Z,3.50
2022-11-23T14:54:27.994Z,3.75
2022-11-23T14:57:44.254Z,4.82
2022-11-23T15:00:48.256Z,4.75
2022-11-23T15:04:08.584Z,5.68
2022-11-23T15:07:11.305Z,5.80
2022-11-23T15:10:45.070Z,6.35
2022-11-23T15:13:49.399Z,3.97
2022-11-23T15:16:52.467Z,3.53
2022-11-23T15:20:02.240Z,3.60
2022-11-23T15:23:05.630Z,3.80
2022-11-23T15:26:41.983Z,3.92
2022-11-23T15:29:51.806Z,3.95
2022-11-23T15:33:01.484Z,3.75
2022-11-23T15:36:05.100Z,3.85
2022-11-23T15:39:14.446Z,3.87
2022-11-23T15:42:20.329Z,4.30
2022-11-23T15:45:35.974Z,4.55
2022-11-23T15:48:39.078Z,4.07
2022-11-23T15:51:44.343Z,3.92
2022-11-23T15:54:47.999Z,3.70
2022-11-23T15:57:55.626Z,4.43
2022-11-23T16:01:07.444Z,4.30
2022-11-23T16:04:35.679Z,3.92
2022-11-23T16:08:00.428Z,4.12
2022-11-23T16:11:04.802Z,5.30
2022-11-23T16:14:35.048Z,4.80
2022-11-23T16:17:38.494Z,4.50
2022-11-23T16:20:45.551Z,6.22
2022-11-23T16:23:56.240Z,4.32
2022-11-23T16:26:59.326Z,4.80
2022-11-23T16:30:04.570Z,4.07
2022-11-23T16:33:15.333Z,3.95
2022-11-23T16:36:18.601Z,4.72
2022-11-23T16:39:21.186Z,4.53
2022-11-23T16:42:24.360Z,4.23
2022-11-23T16:45:27.492Z,4.25
2022-11-23T16:48:39.124Z,7.37
2022-11-23T16:51:41.956Z,7.32
2022-11-23T16:54:51.889Z,6.70
2022-11-23T16:57:55.109Z,5.80
2022-11-23T17:00:58.446Z,6.97
2022-11-23T17:04:02.062Z,6.40
2022-11-23T17:07:05.597Z,6.28
2022-11-23T17:10:09.131Z,6.90
2022-11-23T17:13:27.578Z,7.80
2022-11-23T17:16:31.259Z,7.28
2022-11-23T17:19:39.496Z,6.78
2022-11-23T17:22:42.726Z,8.25
2022-11-23T17:25:45.802Z,7.82
2022-11-23T17:28:48.495Z,7.17
2022-11-23T17:31:52.396Z,8.20
2022-11-23T17:34:55.521Z,8.82
2022-11-23T17:37:58.560Z,8.40
2022-11-23T17:41:01.521Z,7.93
2022-11-23T17:44:05.542Z,8.47
2022-11-23T17:47:25.796Z,6.85
2022-11-23T17:50:28.882Z,8.15
2022-11-23T17:53:34.675Z,7.95
2022-11-23T17:56:38.726Z,7.35
2022-11-23T17:59:41.366Z,9.23
2022-11-23T18:02:44.574Z,9.98
2022-11-23T18:05:47.916Z,12.13
2022-11-23T18:08:54.927Z,12.75
2022-11-23T18:11:58.409Z,16.92
2022-11-23T18:15:01.659Z,12.90
2022-11-23T18:18:05.164Z,17.40
2022-11-23T18:21:10.350Z,21.77
2022-11-23T18:24:13.826Z,18.45
2022-11-23T18:27:16.930Z,10.65
2022-11-23T18:30:20.316Z,13.63
2022-11-23T18:33:24.924Z,10.18
2022-11-23T18:36:28.232Z,13.02
2022-11-23T18:39:31.490Z,11.75
2022-11-23T18:42:34.994Z,10.60
2022-11-23T18:45:37.715Z,10.07
2022-11-23T18:48:41.093Z,12.20
2022-11-23T18:51:44.283Z,12.25
2022-11-23T18:54:47.649Z,10.43
2022-11-23T18:57:55.559Z,13.20
2022-11-23T19:00:58.856Z,11.20
2022-11-23T19:04:02.264Z,13.70
2022-11-23T19:07:06.149Z,17.20
2022-11-23T19:10:09.749Z,16.17
2022-11-23T19:13:13.022Z,18.10
2022-11-23T19:16:22.006Z,16.27
2022-11-23T19:19:25.426Z,17.25
2022-11-23T19:22:28.590Z,17.23
2022-11-23T19:25:32.020Z,17.25
2022-11-23T19:28:35.566Z,19.52
2022-11-23T19:31:40.624Z,20.30
2022-11-23T19:34:44.049Z,19.87
2022-11-23T19:37:48.062Z,19.00
2022-11-23T19:40:55.559Z,19.77
2022-11-23T19:44:00.276Z,21.83
2022-11-23T19:47:08.512Z,19.17
2022-11-23T19:50:15.705Z,18.23
2022-11-23T19:53:18.866Z,19.40
2022-11-23T19:56:28.190Z,18.65
2022-11-23T19:59:31.870Z,18.67
2022-11-23T20:02:36.090Z,18.20
2022-11-23T20:05:52.855Z,18.30
2022-11-23T20:08:56.210Z,19.23
2022-11-23T20:11:59.653Z,18.70
2022-11-23T20:15:03.776Z,19.08
2022-11-23T20:18:07.716Z,18.13
2022-11-23T20:21:16.037Z,17.90
2022-11-23T20:24:19.577Z,18.40
2022-11-23T20:27:22.749Z,17.15
2022-11-23T20:30:26.110Z,19.23
2022-11-23T20:33:29.467Z,19.53
2022-11-23T20:36:35.642Z,17.98
2022-11-23T20:39:38.734Z,19.52
2022-11-23T20:42:42.169Z,16.00
2022-11-23T20:45:45.108Z,18.05
2022-11-23T20:48:48.873Z,17.27
2022-11-23T20:51:51.671Z,18.58
2022-11-23T20:54:54.955Z,19.40
2022-11-23T20:57:59.660Z,18.08
2022-11-23T21:01:05.140Z,18.77
2022-11-23T21:04:09.604Z,17.90
2022-11-23T21:07:12.870Z,20.27
2022-11-23T21:10:35.554Z,20.95
2022-11-23T21:13:56.932Z,21.10
2022-11-23T21:17:00.509Z,20.58
2022-11-23T21:20:03.914Z,11.83
2022-11-23T21:23:07.016Z,19.83
2022-11-23T21:26:09.919Z,20.35
2022-11-23T21:29:13.009Z,21.30
2022-11-23T21:32:15.808Z,20.52
2022-11-23T21:35:18.380Z,19.27
2022-11-23T21:38:23.628Z,21.48
2022-11-23T21:41:26.274Z,20.23
2022-11-23T21:44:29.438Z,22.45
2022-11-23T21:47:31.989Z,20.17
2022-11-23T21:50:36.349Z,20.70
2022-11-23T21:53:39.430Z,22.45
2022-11-23T21:56:43.909Z,22.40
2022-11-23T21:59:46.524Z,21.08
2022-11-23T22:02:49.488Z,22.20
2022-11-23T22:05:57.183Z,21.20
2022-11-23T22:09:05.046Z,20.95
2022-11-23T22:12:08.521Z,21.70
2022-11-23T22:15:12.407Z,20.67
2022-11-23T22:18:15.381Z,20.42
2022-11-23T22:21:19.902Z,19.83
2022-11-23T22:24:22.952Z,20.85
2022-11-23T22:27:25.528Z,20.67
2022-11-23T22:30:28.431Z,20.37
2022-11-23T22:33:31.624Z,20.37
2022-11-23T22:36:34.633Z,19.93
2022-11-23T22:39:37.248Z,20.45
2022-11-23T22:42:40.200Z,19.65
2022-11-23T22:45:42.927Z,20.20
2022-11-23T22:48:47.491Z,19.60
2022-11-23T22:51:50.132Z,18.97
2022-11-23T22:54:53.091Z,18.62
2022-11-23T22:57:55.748Z,18.67
2022-11-23T23:01:06.238Z,19.00
2022-11-23T23:04:08.961Z,18.48
2022-11-23T23:07:11.887Z,19.17
2022-11-23T23:10:14.515Z,19.37
2022-11-23T23:13:18.181Z,19.40
2022-11-23T23:16:21.624Z,19.05
2022-11-23T23:19:26.120Z,18.25
2022-11-23T23:22:28.903Z,19.97
2022-11-23T23:25:32.464Z,19.15
2022-11-23T23:28:35.923Z,18.42
2022-11-23T23:31:39.344Z,17.33
2022-11-23T23:34:41.891Z,19.62
2022-11-23T23:37:44.872Z,17.93
2022-11-23T23:40:47.475Z,18.48
2022-11-23T23:43:50.403Z,17.58
2022-11-23T23:46:53.043Z,17.50
2022-11-23T23:49:55.980Z,16.83
2022-11-23T23:52:58.580Z,18.40
2022-11-23T23:56:04.153Z,18.42
2022-11-23T23:59:06.782Z,16.70
